sensor_id;sensor_type;location;lat;lon;timestamp;pressure;altitude;pressure_sealevel;temperature;humidity
54870;BME280;40756;-37.950;145.008;2023-06-14T00:00:10;101113.69;;;12.27;56.42
54870;BME280;40756;-37.950;145.008;2023-06-14T00:02:40;101112.24;;;12.24;55.59
54870;BME280;40756;-37.950;145.008;2023-06-14T00:05:09;101120.94;;;11.89;56.13
54870;BME280;40756;-37.950;145.008;2023-06-14T00:07:40;101126.69;;;12.23;56.32
54870;BME280;40756;-37.950;145.008;2023-06-14T00:10:10;101128.61;;;12.07;56.76
54870;BME280;40756;-37.950;145.008;2023-06-14T00:12:40;101130.59;;;11.60;56.40
54870;BME280;40756;-37.950;145.008;2023-06-14T00:15:10;101133.72;;;12.31;56.33
54870;BME280;40756;-37.950;145.008;2023-06-14T00:17:39;101132.32;;;11.99;56.05
54870;BME280;40756;-37.950;145.008;2023-06-14T00:20:10;101121.68;;;12.70;55.27
54870;BME280;40756;-37.950;145.008;2023-06-14T00:22:40;101131.58;;;12.27;55.81
54870;BME280;40756;-37.950;145.008;2023-06-14T00:25:10;101129.88;;;12.86;54.86
54870;BME280;40756;-37.950;145.008;2023-06-14T00:27:39;101132.70;;;12.47;55.48
54870;BME280;40756;-37.950;145.008;2023-06-14T00:30:10;101133.37;;;12.02;55.04
54870;BME280;40756;-37.950;145.008;2023-06-14T00:32:40;101132.54;;;12.78;54.17
54870;BME280;40756;-37.950;145.008;2023-06-14T00:35:10;101143.52;;;12.18;55.64
54870;BME280;40756;-37.950;145.008;2023-06-14T00:37:39;101146.31;;;12.36;55.09
54870;BME280;40756;-37.950;145.008;2023-06-14T00:40:10;101145.08;;;12.58;54.86
54870;BME280;40756;-37.950;145.008;2023-06-14T00:42:39;101145.77;;;12.89;54.26
54870;BME280;40756;-37.950;145.008;2023-06-14T00:45:10;101144.77;;;12.81;54.41
54870;BME280;40756;-37.950;145.008;2023-06-14T00:47:42;101146.58;;;13.07;54.06
54870;BME280;40756;-37.950;145.008;2023-06-14T00:50:13;101145.31;;;12.61;54.38
54870;BME280;40756;-37.950;145.008;2023-06-14T00:52:42;101145.66;;;12.65;54.93
54870;BME280;40756;-37.950;145.008;2023-06-14T00:55:12;101146.27;;;12.54;54.24
54870;BME280;40756;-37.950;145.008;2023-06-14T00:57:42;101144.43;;;13.02;54.43
54870;BME280;40756;-37.950;145.008;2023-06-14T01:00:13;101143.17;;;12.87;54.17
54870;BME280;40756;-37.950;145.008;2023-06-14T01:02:42;101141.19;;;13.14;53.48
54870;BME280;40756;-37.950;145.008;2023-06-14T01:05:12;101137.23;;;13.10;52.74
54870;BME280;40756;-37.950;145.008;2023-06-14T01:07:53;101137.51;;;12.73;53.98
54870;BME280;40756;-37.950;145.008;2023-06-14T01:10:36;101128.34;;;12.72;55.04
54870;BME280;40756;-37.950;145.008;2023-06-14T01:13:15;101121.74;;;12.96;54.62
54870;BME280;40756;-37.950;145.008;2023-06-14T01:15:49;101115.32;;;12.70;55.08
54870;BME280;40756;-37.950;145.008;2023-06-14T01:18:19;101114.53;;;13.31;53.46
54870;BME280;40756;-37.950;145.008;2023-06-14T01:20:49;101115.47;;;13.32;52.68
54870;BME280;40756;-37.950;145.008;2023-06-14T01:23:20;101116.21;;;13.62;52.05
54870;BME280;40756;-37.950;145.008;2023-06-14T01:25:49;101114.89;;;13.72;52.00
54870;BME280;40756;-37.950;145.008;2023-06-14T01:28:21;101108.86;;;14.00;51.91
54870;BME280;40756;-37.950;145.008;2023-06-14T01:30:52;101108.84;;;13.47;51.29
54870;BME280;40756;-37.950;145.008;2023-06-14T01:33:24;101106.58;;;13.92;51.16
54870;BME280;40756;-37.950;145.008;2023-06-14T01:35:56;101107.03;;;14.17;49.62
54870;BME280;40756;-37.950;145.008;2023-06-14T01:38:27;101110.26;;;13.87;51.37
54870;BME280;40756;-37.950;145.008;2023-06-14T01:40:58;101104.79;;;13.91;49.71
54870;BME280;40756;-37.950;145.008;2023-06-14T01:43:31;101104.29;;;13.43;51.47
54870;BME280;40756;-37.950;145.008;2023-06-14T01:46:03;101098.70;;;13.66;50.81
54870;BME280;40756;-37.950;145.008;2023-06-14T01:48:33;101100.76;;;13.76;50.96
54870;BME280;40756;-37.950;145.008;2023-06-14T01:51:03;101102.05;;;13.64;50.58
54870;BME280;40756;-37.950;145.008;2023-06-14T01:53:33;101106.42;;;14.19;50.04
54870;BME280;40756;-37.950;145.008;2023-06-14T01:56:02;101101.63;;;13.71;50.18
54870;BME280;40756;-37.950;145.008;2023-06-14T01:58:32;101102.72;;;13.31;52.23
54870;BME280;40756;-37.950;145.008;2023-06-14T02:01:02;101103.31;;;13.61;52.01
54870;BME280;40756;-37.950;145.008;2023-06-14T02:03:31;101103.37;;;13.48;50.45
54870;BME280;40756;-37.950;145.008;2023-06-14T02:06:01;101100.51;;;14.05;50.03
54870;BME280;40756;-37.950;145.008;2023-06-14T02:08:31;101100.83;;;13.98;49.73
54870;BME280;40756;-37.950;145.008;2023-06-14T02:11:00;101102.15;;;13.46;50.62
54870;BME280;40756;-37.950;145.008;2023-06-14T02:13:30;101099.76;;;13.64;50.07
54870;BME280;40756;-37.950;145.008;2023-06-14T02:16:00;101094.24;;;13.83;50.19
54870;BME280;40756;-37.950;145.008;2023-06-14T02:18:30;101095.45;;;14.06;50.35
54870;BME280;40756;-37.950;145.008;2023-06-14T02:20:59;101094.32;;;14.40;50.09
54870;BME280;40756;-37.950;145.008;2023-06-14T02:23:29;101096.52;;;13.50;50.48
54870;BME280;40756;-37.950;145.008;2023-06-14T02:25:58;101092.58;;;14.37;49.90
54870;BME280;40756;-37.950;145.008;2023-06-14T02:28:28;101087.95;;;14.34;49.60
54870;BME280;40756;-37.950;145.008;2023-06-14T02:30:58;101094.24;;;14.00;50.03
54870;BME280;40756;-37.950;145.008;2023-06-14T02:33:27;101092.11;;;14.12;50.92
54870;BME280;40756;-37.950;145.008;2023-06-14T02:35:57;101092.97;;;14.58;49.71
54870;BME280;40756;-37.950;145.008;2023-06-14T02:38:27;101092.45;;;13.75;51.06
54870;BME280;40756;-37.950;145.008;2023-06-14T02:40:57;101086.31;;;14.44;48.82
54870;BME280;40756;-37.950;145.008;2023-06-14T02:43:28;101083.45;;;14.08;49.48
54870;BME280;40756;-37.950;145.008;2023-06-14T02:45:57;101087.99;;;13.77;49.98
54870;BME280;40756;-37.950;145.008;2023-06-14T02:48:27;101089.37;;;13.32;50.90
54870;BME280;40756;-37.950;145.008;2023-06-14T02:50:57;101087.95;;;13.63;49.90
54870;BME280;40756;-37.950;145.008;2023-06-14T02:53:26;101083.78;;;13.70;49.68
54870;BME280;40756;-37.950;145.008;2023-06-14T02:55:56;101083.91;;;14.04;48.56
54870;BME280;40756;-37.950;145.008;2023-06-14T02:58:26;101081.75;;;13.83;48.66
54870;BME280;40756;-37.950;145.008;2023-06-14T03:00:55;101082.16;;;14.10;47.98
54870;BME280;40756;-37.950;145.008;2023-06-14T03:03:25;101078.41;;;15.15;47.43
54870;BME280;40756;-37.950;145.008;2023-06-14T03:05:55;101080.70;;;14.89;48.25
54870;BME280;40756;-37.950;145.008;2023-06-14T03:08:24;101086.59;;;14.07;48.49
54870;BME280;40756;-37.950;145.008;2023-06-14T03:10:54;101086.22;;;13.46;50.51
54870;BME280;40756;-37.950;145.008;2023-06-14T03:13:23;101094.98;;;14.19;49.75
54870;BME280;40756;-37.950;145.008;2023-06-14T03:15:53;101089.20;;;13.14;53.04
54870;BME280;40756;-37.950;145.008;2023-06-14T03:18:22;101092.58;;;12.22;55.55
54870;BME280;40756;-37.950;145.008;2023-06-14T03:20:52;101080.51;;;12.48;54.05
54870;BME280;40756;-37.950;145.008;2023-06-14T03:23:22;101075.32;;;13.03;52.00
54870;BME280;40756;-37.950;145.008;2023-06-14T03:25:51;101072.10;;;13.00;51.56
54870;BME280;40756;-37.950;145.008;2023-06-14T03:28:21;101071.49;;;12.74;52.30
54870;BME280;40756;-37.950;145.008;2023-06-14T03:30:50;101072.50;;;12.93;52.82
54870;BME280;40756;-37.950;145.008;2023-06-14T03:33:19;101069.85;;;13.43;52.11
54870;BME280;40756;-37.950;145.008;2023-06-14T03:35:49;101069.07;;;13.77;52.15
54870;BME280;40756;-37.950;145.008;2023-06-14T03:38:19;101063.47;;;13.92;51.58
54870;BME280;40756;-37.950;145.008;2023-06-14T03:40:49;101065.25;;;14.21;52.50
54870;BME280;40756;-37.950;145.008;2023-06-14T03:43:19;101062.07;;;14.84;50.37
54870;BME280;40756;-37.950;145.008;2023-06-14T03:45:49;101064.12;;;13.63;51.55
54870;BME280;40756;-37.950;145.008;2023-06-14T03:48:18;101067.14;;;13.49;52.77
54870;BME280;40756;-37.950;145.008;2023-06-14T03:50:48;101063.61;;;13.74;52.70
54870;BME280;40756;-37.950;145.008;2023-06-14T03:53:18;101060.76;;;13.94;52.24
54870;BME280;40756;-37.950;145.008;2023-06-14T03:55:47;101062.72;;;13.04;53.02
54870;BME280;40756;-37.950;145.008;2023-06-14T03:58:17;101061.30;;;13.86;50.93
54870;BME280;40756;-37.950;145.008;2023-06-14T04:00:47;101061.92;;;13.09;52.20
54870;BME280;40756;-37.950;145.008;2023-06-14T04:03:16;101058.08;;;14.06;49.62
54870;BME280;40756;-37.950;145.008;2023-06-14T04:05:46;101059.56;;;13.89;49.53
54870;BME280;40756;-37.950;145.008;2023-06-14T04:08:15;101058.45;;;13.92;48.70
54870;BME280;40756;-37.950;145.008;2023-06-14T04:10:45;101059.00;;;14.19;49.21
54870;BME280;40756;-37.950;145.008;2023-06-14T04:13:15;101058.70;;;14.39;49.30
54870;BME280;40756;-37.950;145.008;2023-06-14T04:15:44;101060.14;;;14.25;50.91
54870;BME280;40756;-37.950;145.008;2023-06-14T04:18:14;101058.05;;;14.23;49.81
54870;BME280;40756;-37.950;145.008;2023-06-14T04:20:44;101060.24;;;14.66;49.13
54870;BME280;40756;-37.950;145.008;2023-06-14T04:23:15;101058.30;;;15.18;49.26
54870;BME280;40756;-37.950;145.008;2023-06-14T04:25:45;101058.36;;;14.73;48.38
54870;BME280;40756;-37.950;145.008;2023-06-14T04:28:15;101052.24;;;15.13;47.75
54870;BME280;40756;-37.950;145.008;2023-06-14T04:30:45;101049.81;;;15.14;48.13
54870;BME280;40756;-37.950;145.008;2023-06-14T04:33:14;101055.99;;;14.95;45.89
54870;BME280;40756;-37.950;145.008;2023-06-14T04:35:44;101054.72;;;15.19;46.57
54870;BME280;40756;-37.950;145.008;2023-06-14T04:38:13;101056.06;;;14.04;47.50
54870;BME280;40756;-37.950;145.008;2023-06-14T04:40:43;101055.62;;;14.42;46.22
54870;BME280;40756;-37.950;145.008;2023-06-14T04:43:13;101055.23;;;14.20;45.06
54870;BME280;40756;-37.950;145.008;2023-06-14T04:45:43;101057.78;;;13.40;46.03
54870;BME280;40756;-37.950;145.008;2023-06-14T04:48:13;101058.65;;;14.29;44.38
54870;BME280;40756;-37.950;145.008;2023-06-14T04:50:42;101056.65;;;15.33;43.13
54870;BME280;40756;-37.950;145.008;2023-06-14T04:53:12;101060.05;;;15.46;41.58
54870;BME280;40756;-37.950;145.008;2023-06-14T04:55:42;101061.36;;;15.16;42.63
54870;BME280;40756;-37.950;145.008;2023-06-14T04:58:11;101065.75;;;15.70;41.95
54870;BME280;40756;-37.950;145.008;2023-06-14T05:00:41;101070.26;;;14.76;41.79
54870;BME280;40756;-37.950;145.008;2023-06-14T05:03:11;101073.38;;;15.19;41.92
54870;BME280;40756;-37.950;145.008;2023-06-14T05:05:40;101074.53;;;15.48;41.70
54870;BME280;40756;-37.950;145.008;2023-06-14T05:08:10;101082.53;;;14.90;41.40
54870;BME280;40756;-37.950;145.008;2023-06-14T05:10:39;101084.36;;;15.36;41.11
54870;BME280;40756;-37.950;145.008;2023-06-14T05:13:09;101090.15;;;14.08;42.43
54870;BME280;40756;-37.950;145.008;2023-06-14T05:15:38;101096.16;;;14.97;41.72
54870;BME280;40756;-37.950;145.008;2023-06-14T05:18:08;101095.56;;;14.11;42.50
54870;BME280;40756;-37.950;145.008;2023-06-14T05:20:38;101100.30;;;14.85;41.70
54870;BME280;40756;-37.950;145.008;2023-06-14T05:23:08;101101.19;;;14.05;42.69
54870;BME280;40756;-37.950;145.008;2023-06-14T05:25:38;101102.66;;;15.36;41.36
54870;BME280;40756;-37.950;145.008;2023-06-14T05:28:07;101101.89;;;14.87;41.56
54870;BME280;40756;-37.950;145.008;2023-06-14T05:30:38;101105.34;;;15.04;41.33
54870;BME280;40756;-37.950;145.008;2023-06-14T05:33:07;101107.55;;;14.39;41.41
54870;BME280;40756;-37.950;145.008;2023-06-14T05:35:37;101111.64;;;14.06;41.90
54870;BME280;40756;-37.950;145.008;2023-06-14T05:38:07;101111.51;;;14.98;41.68
54870;BME280;40756;-37.950;145.008;2023-06-14T05:40:36;101112.19;;;15.01;40.42
54870;BME280;40756;-37.950;145.008;2023-06-14T05:43:06;101115.02;;;14.42;40.29
54870;BME280;40756;-37.950;145.008;2023-06-14T05:45:36;101115.99;;;13.80;41.32
54870;BME280;40756;-37.950;145.008;2023-06-14T05:48:06;101116.50;;;14.28;40.58
54870;BME280;40756;-37.950;145.008;2023-06-14T05:50:36;101119.30;;;14.85;40.44
54870;BME280;40756;-37.950;145.008;2023-06-14T05:53:05;101122.99;;;14.91;39.89
54870;BME280;40756;-37.950;145.008;2023-06-14T05:55:35;101130.49;;;15.21;40.11
54870;BME280;40756;-37.950;145.008;2023-06-14T05:58:05;101129.89;;;14.95;39.42
54870;BME280;40756;-37.950;145.008;2023-06-14T06:00:34;101135.27;;;14.47;39.28
54870;BME280;40756;-37.950;145.008;2023-06-14T06:03:04;101134.05;;;14.90;40.01
54870;BME280;40756;-37.950;145.008;2023-06-14T06:05:33;101132.60;;;13.87;41.19
54870;BME280;40756;-37.950;145.008;2023-06-14T06:08:03;101128.62;;;14.46;40.40
54870;BME280;40756;-37.950;145.008;2023-06-14T06:10:33;101132.02;;;14.40;40.74
54870;BME280;40756;-37.950;145.008;2023-06-14T06:13:02;101130.86;;;14.31;40.88
54870;BME280;40756;-37.950;145.008;2023-06-14T06:15:32;101131.43;;;14.66;40.53
54870;BME280;40756;-37.950;145.008;2023-06-14T06:18:02;101132.16;;;14.05;41.52
54870;BME280;40756;-37.950;145.008;2023-06-14T06:20:31;101129.06;;;14.93;41.96
54870;BME280;40756;-37.950;145.008;2023-06-14T06:23:01;101126.15;;;14.94;39.14
54870;BME280;40756;-37.950;145.008;2023-06-14T06:25:31;101130.24;;;14.38;39.45
54870;BME280;40756;-37.950;145.008;2023-06-14T06:28:01;101131.12;;;15.12;38.76
54870;BME280;40756;-37.950;145.008;2023-06-14T06:30:31;101132.55;;;14.42;39.46
54870;BME280;40756;-37.950;145.008;2023-06-14T06:33:01;101135.52;;;13.03;40.75
54870;BME280;40756;-37.950;145.008;2023-06-14T06:35:30;101137.51;;;14.42;38.59
54870;BME280;40756;-37.950;145.008;2023-06-14T06:38:00;101139.97;;;14.21;38.22
54870;BME280;40756;-37.950;145.008;2023-06-14T06:40:29;101139.93;;;14.10;38.52
54870;BME280;40756;-37.950;145.008;2023-06-14T06:42:59;101145.27;;;13.47;39.17
54870;BME280;40756;-37.950;145.008;2023-06-14T06:45:29;101142.85;;;14.17;39.10
54870;BME280;40756;-37.950;145.008;2023-06-14T06:47:59;101146.12;;;13.54;39.41
54870;BME280;40756;-37.950;145.008;2023-06-14T06:50:29;101146.66;;;14.15;39.33
54870;BME280;40756;-37.950;145.008;2023-06-14T06:52:59;101152.79;;;13.85;39.14
54870;BME280;40756;-37.950;145.008;2023-06-14T06:55:28;101153.90;;;14.19;38.60
54870;BME280;40756;-37.950;145.008;2023-06-14T06:57:58;101159.85;;;13.21;40.00
54870;BME280;40756;-37.950;145.008;2023-06-14T07:00:28;101159.52;;;13.97;38.81
54870;BME280;40756;-37.950;145.008;2023-06-14T07:02:57;101162.07;;;13.98;39.32
54870;BME280;40756;-37.950;145.008;2023-06-14T07:05:27;101160.50;;;13.80;39.19
54870;BME280;40756;-37.950;145.008;2023-06-14T07:07:57;101161.18;;;13.96;39.29
54870;BME280;40756;-37.950;145.008;2023-06-14T07:10:26;101160.06;;;14.24;38.75
54870;BME280;40756;-37.950;145.008;2023-06-14T07:12:56;101161.13;;;14.51;38.61
54870;BME280;40756;-37.950;145.008;2023-06-14T07:15:26;101161.46;;;14.24;39.15
54870;BME280;40756;-37.950;145.008;2023-06-14T07:17:55;101163.81;;;14.34;39.29
54870;BME280;40756;-37.950;145.008;2023-06-14T07:20:25;101165.25;;;14.50;39.59
54870;BME280;40756;-37.950;145.008;2023-06-14T07:22:55;101166.49;;;14.50;39.65
54870;BME280;40756;-37.950;145.008;2023-06-14T07:25:24;101172.33;;;14.50;40.10
54870;BME280;40756;-37.950;145.008;2023-06-14T07:27:54;101175.54;;;14.31;40.09
54870;BME280;40756;-37.950;145.008;2023-06-14T07:30:24;101176.51;;;14.31;40.19
54870;BME280;40756;-37.950;145.008;2023-06-14T07:32:53;101179.44;;;14.37;40.56
54870;BME280;40756;-37.950;145.008;2023-06-14T07:35:23;101179.97;;;14.09;40.99
54870;BME280;40756;-37.950;145.008;2023-06-14T07:37:53;101181.89;;;14.31;41.42
54870;BME280;40756;-37.950;145.008;2023-06-14T07:40:22;101184.53;;;14.37;41.68
54870;BME280;40756;-37.950;145.008;2023-06-14T07:42:52;101186.53;;;14.11;41.73
54870;BME280;40756;-37.950;145.008;2023-06-14T07:45:22;101191.97;;;14.44;41.55
54870;BME280;40756;-37.950;145.008;2023-06-14T07:47:51;101193.98;;;14.36;40.99
54870;BME280;40756;-37.950;145.008;2023-06-14T07:50:22;101195.66;;;14.18;41.16
54870;BME280;40756;-37.950;145.008;2023-06-14T07:52:51;101202.08;;;14.28;41.41
54870;BME280;40756;-37.950;145.008;2023-06-14T07:55:21;101207.09;;;14.22;41.66
54870;BME280;40756;-37.950;145.008;2023-06-14T07:57:50;101203.28;;;14.44;41.62
54870;BME280;40756;-37.950;145.008;2023-06-14T08:00:21;101204.51;;;14.03;41.49
54870;BME280;40756;-37.950;145.008;2023-06-14T08:02:51;101206.76;;;14.44;41.44
54870;BME280;40756;-37.950;145.008;2023-06-14T08:05:20;101207.65;;;14.01;41.64
54870;BME280;40756;-37.950;145.008;2023-06-14T08:07:50;101207.50;;;14.01;41.79
54870;BME280;40756;-37.950;145.008;2023-06-14T08:10:20;101212.24;;;14.21;41.38
54870;BME280;40756;-37.950;145.008;2023-06-14T08:12:50;101215.19;;;14.12;40.98
54870;BME280;40756;-37.950;145.008;2023-06-14T08:15:19;101216.02;;;14.22;41.27
54870;BME280;40756;-37.950;145.008;2023-06-14T08:17:49;101217.73;;;13.80;41.39
54870;BME280;40756;-37.950;145.008;2023-06-14T08:20:18;101221.13;;;14.61;47.42
54870;BME280;40756;-37.950;145.008;2023-06-14T08:22:48;101227.47;;;14.80;46.15
54870;BME280;40756;-37.950;145.008;2023-06-14T08:25:18;101231.36;;;14.87;40.57
54870;BME280;40756;-37.950;145.008;2023-06-14T08:27:47;101233.29;;;14.84;39.83
54870;BME280;40756;-37.950;145.008;2023-06-14T08:30:17;101232.75;;;14.43;40.09
54870;BME280;40756;-37.950;145.008;2023-06-14T08:32:46;101235.34;;;14.34;41.03
54870;BME280;40756;-37.950;145.008;2023-06-14T08:35:16;101239.77;;;14.27;40.47
54870;BME280;40756;-37.950;145.008;2023-06-14T08:37:46;101240.24;;;13.95;40.51
54870;BME280;40756;-37.950;145.008;2023-06-14T08:40:21;101238.59;;;13.69;41.05
54870;BME280;40756;-37.950;145.008;2023-06-14T08:42:53;101238.66;;;13.87;40.14
54870;BME280;40756;-37.950;145.008;2023-06-14T08:45:23;101241.64;;;13.62;41.32
54870;BME280;40756;-37.950;145.008;2023-06-14T08:47:53;101242.58;;;13.23;40.79
54870;BME280;40756;-37.950;145.008;2023-06-14T08:50:24;101242.26;;;13.69;41.13
54870;BME280;40756;-37.950;145.008;2023-06-14T08:52:56;101243.57;;;13.27;41.53
54870;BME280;40756;-37.950;145.008;2023-06-14T08:55:25;101244.14;;;13.72;41.40
54870;BME280;40756;-37.950;145.008;2023-06-14T08:57:57;101251.09;;;13.63;41.46
54870;BME280;40756;-37.950;145.008;2023-06-14T09:00:27;101255.09;;;13.35;41.90
54870;BME280;40756;-37.950;145.008;2023-06-14T09:02:57;101250.39;;;13.47;45.37
54870;BME280;40756;-37.950;145.008;2023-06-14T09:05:27;101247.82;;;14.42;45.10
54870;BME280;40756;-37.950;145.008;2023-06-14T09:07:56;101244.46;;;14.00;43.07
54870;BME280;40756;-37.950;145.008;2023-06-14T09:10:26;101245.90;;;14.39;42.81
54870;BME280;40756;-37.950;145.008;2023-06-14T09:12:56;101246.98;;;14.55;40.08
54870;BME280;40756;-37.950;145.008;2023-06-14T09:15:27;101247.44;;;14.16;40.12
54870;BME280;40756;-37.950;145.008;2023-06-14T09:17:56;101248.79;;;14.22;40.62
54870;BME280;40756;-37.950;145.008;2023-06-14T09:20:26;101251.27;;;13.76;40.43
54870;BME280;40756;-37.950;145.008;2023-06-14T09:22:55;101251.78;;;13.80;40.84
54870;BME280;40756;-37.950;145.008;2023-06-14T09:25:25;101252.57;;;13.73;40.99
54870;BME280;40756;-37.950;145.008;2023-06-14T09:27:54;101249.94;;;13.64;42.04
54870;BME280;40756;-37.950;145.008;2023-06-14T09:30:24;101250.30;;;13.22;41.50
54870;BME280;40756;-37.950;145.008;2023-06-14T09:32:53;101251.13;;;13.19;41.77
54870;BME280;40756;-37.950;145.008;2023-06-14T09:35:23;101253.60;;;13.34;41.01
54870;BME280;40756;-37.950;145.008;2023-06-14T09:37:52;101256.24;;;13.24;41.30
54870;BME280;40756;-37.950;145.008;2023-06-14T09:40:24;101253.48;;;12.86;40.62
54870;BME280;40756;-37.950;145.008;2023-06-14T09:42:54;101254.64;;;13.03;41.22
54870;BME280;40756;-37.950;145.008;2023-06-14T09:45:25;101254.14;;;12.30;40.70
54870;BME280;40756;-37.950;145.008;2023-06-14T09:47:55;101256.72;;;12.88;40.94
54870;BME280;40756;-37.950;145.008;2023-06-14T09:50:25;101254.78;;;13.20;40.85
54870;BME280;40756;-37.950;145.008;2023-06-14T09:53:02;101252.19;;;12.75;40.83
54870;BME280;40756;-37.950;145.008;2023-06-14T09:55:33;101256.34;;;12.78;41.77
54870;BME280;40756;-37.950;145.008;2023-06-14T09:58:06;101260.18;;;12.82;42.39
54870;BME280;40756;-37.950;145.008;2023-06-14T10:00:36;101261.61;;;12.75;42.35
54870;BME280;40756;-37.950;145.008;2023-06-14T10:03:13;101263.43;;;12.97;42.89
54870;BME280;40756;-37.950;145.008;2023-06-14T10:05:45;101259.71;;;12.46;43.20
54870;BME280;40756;-37.950;145.008;2023-06-14T10:08:17;101263.08;;;12.29;43.51
54870;BME280;40756;-37.950;145.008;2023-06-14T10:10:47;101255.40;;;14.16;46.88
54870;BME280;40756;-37.950;145.008;2023-06-14T10:13:17;101258.05;;;13.75;41.58
54870;BME280;40756;-37.950;145.008;2023-06-14T10:15:54;101261.57;;;13.23;41.81
54870;BME280;40756;-37.950;145.008;2023-06-14T10:18:36;101261.25;;;12.75;42.73
54870;BME280;40756;-37.950;145.008;2023-06-14T10:21:18;101259.35;;;12.58;43.48
54870;BME280;40756;-37.950;145.008;2023-06-14T10:23:51;101257.34;;;12.42;43.38
54870;BME280;40756;-37.950;145.008;2023-06-14T10:26:22;101261.20;;;12.51;43.77
54870;BME280;40756;-37.950;145.008;2023-06-14T10:29:01;101261.50;;;12.05;44.21
54870;BME280;40756;-37.950;145.008;2023-06-14T10:31:44;101261.76;;;12.06;44.56
54870;BME280;40756;-37.950;145.008;2023-06-14T10:34:20;101262.88;;;12.05;44.95
54870;BME280;40756;-37.950;145.008;2023-06-14T10:37:02;101263.52;;;11.81;45.07
54870;BME280;40756;-37.950;145.008;2023-06-14T10:39:37;101263.39;;;11.85;45.64
54870;BME280;40756;-37.950;145.008;2023-06-14T10:42:08;101257.68;;;11.96;45.45
54870;BME280;40756;-37.950;145.008;2023-06-14T10:44:43;101257.67;;;11.72;45.39
54870;BME280;40756;-37.950;145.008;2023-06-14T10:47:24;101259.75;;;11.67;45.73
54870;BME280;40756;-37.950;145.008;2023-06-14T10:49:55;101264.46;;;11.70;46.29
54870;BME280;40756;-37.950;145.008;2023-06-14T10:52:27;101266.46;;;11.68;46.08
54870;BME280;40756;-37.950;145.008;2023-06-14T10:55:04;101266.60;;;11.80;46.57
54870;BME280;40756;-37.950;145.008;2023-06-14T10:57:35;101265.31;;;11.63;46.83
54870;BME280;40756;-37.950;145.008;2023-06-14T11:00:06;101269.37;;;11.75;46.98
54870;BME280;40756;-37.950;145.008;2023-06-14T11:03:53;101273.34;;;12.09;46.98
54870;BME280;40756;-37.950;145.008;2023-06-14T11:06:24;101275.87;;;11.61;46.57
54870;BME280;40756;-37.950;145.008;2023-06-14T11:09:26;101277.52;;;11.66;46.46
54870;BME280;40756;-37.950;145.008;2023-06-14T11:12:02;101276.02;;;11.34;47.13
54870;BME280;40756;-37.950;145.008;2023-06-14T11:14:32;101276.47;;;11.30;46.99
54870;BME280;40756;-37.950;145.008;2023-06-14T11:17:02;101278.90;;;11.15;47.24
54870;BME280;40756;-37.950;145.008;2023-06-14T11:19:32;101275.87;;;11.93;46.33
54870;BME280;40756;-37.950;145.008;2023-06-14T11:22:01;101272.13;;;11.84;46.32
54870;BME280;40756;-37.950;145.008;2023-06-14T11:24:33;101266.91;;;11.68;45.77
54870;BME280;40756;-37.950;145.008;2023-06-14T11:27:03;101267.99;;;12.08;45.90
54870;BME280;40756;-37.950;145.008;2023-06-14T11:29:32;101269.44;;;11.89;46.12
54870;BME280;40756;-37.950;145.008;2023-06-14T11:32:02;101265.07;;;12.02;46.17
54870;BME280;40756;-37.950;145.008;2023-06-14T11:34:35;101265.23;;;11.53;46.25
54870;BME280;40756;-37.950;145.008;2023-06-14T11:37:05;101262.48;;;11.55;46.04
54870;BME280;40756;-37.950;145.008;2023-06-14T11:39:34;101258.98;;;11.60;45.13
54870;BME280;40756;-37.950;145.008;2023-06-14T11:42:05;101257.29;;;11.89;44.70
54870;BME280;40756;-37.950;145.008;2023-06-14T11:44:34;101254.93;;;12.15;44.84
54870;BME280;40756;-37.950;145.008;2023-06-14T11:47:06;101255.24;;;12.04;44.91
54870;BME280;40756;-37.950;145.008;2023-06-14T11:49:37;101257.95;;;11.82;44.37
54870;BME280;40756;-37.950;145.008;2023-06-14T11:52:07;101262.06;;;11.91;44.03
54870;BME280;40756;-37.950;145.008;2023-06-14T11:54:38;101263.47;;;12.01;44.10
54870;BME280;40756;-37.950;145.008;2023-06-14T11:57:08;101264.76;;;12.44;43.80
54870;BME280;40756;-37.950;145.008;2023-06-14T11:59:40;101273.45;;;11.59;44.14
54870;BME280;40756;-37.950;145.008;2023-06-14T12:02:09;101274.27;;;12.00;44.45
54870;BME280;40756;-37.950;145.008;2023-06-14T12:04:42;101275.68;;;12.23;44.61
54870;BME280;40756;-37.950;145.008;2023-06-14T12:07:12;101270.95;;;11.81;44.84
54870;BME280;40756;-37.950;145.008;2023-06-14T12:09:42;101273.12;;;12.00;44.59
54870;BME280;40756;-37.950;145.008;2023-06-14T12:12:34;101276.24;;;12.42;44.67
54870;BME280;40756;-37.950;145.008;2023-06-14T12:15:05;101275.18;;;12.04;44.76
54870;BME280;40756;-37.950;145.008;2023-06-14T12:17:36;101274.55;;;12.00;46.21
54870;BME280;40756;-37.950;145.008;2023-06-14T12:20:08;101270.08;;;13.03;47.22
54870;BME280;40756;-37.950;145.008;2023-06-14T12:22:38;101263.79;;;13.58;45.55
54870;BME280;40756;-37.950;145.008;2023-06-14T12:25:08;101262.41;;;13.33;42.62
54870;BME280;40756;-37.950;145.008;2023-06-14T12:27:41;101260.62;;;13.05;42.39
54870;BME280;40756;-37.950;145.008;2023-06-14T12:30:11;101253.80;;;12.88;42.78
54870;BME280;40756;-37.950;145.008;2023-06-14T12:32:41;101245.74;;;12.55;43.24
54870;BME280;40756;-37.950;145.008;2023-06-14T12:35:10;101242.83;;;12.42;43.40
54870;BME280;40756;-37.950;145.008;2023-06-14T12:37:39;101243.88;;;12.26;44.20